Time;durP1;ratioP1;P1;durP2;ratioP2;P2;SDS_P1;SDS_P2;PMS_P1;PMS_P2;Temp;Humidity;BMP_temperature;BMP_pressure;BME280_temperature;BME280_humidity;BME280_pressure;Samples;Min_cycle;Max_cycle;Signal;HPM_P1;HPM_P2
2022/06/28 00:02:09;;;;;;;6.20;5.32;;;;;;;;;;5032427;28;20053;-59
2022/06/28 00:04:35;;;;;;;8.05;6.63;;;;;;;;;;5033933;28;20060;-58
2022/06/28 00:07:01;;;;;;;7.57;6.20;;;;;;;;;;5038233;28;20468;-59
2022/06/28 00:09:27;;;;;;;8.18;6.50;;;;;;;;;;5039569;28;20142;-60
2022/06/28 00:11:53;;;;;;;7.43;6.30;;;;;;;;;;5037332;28;20025;-60
2022/06/28 00:17:05;;;;;;;11.90;6.85;;;;;;;;;;5031626;28;20120;-60
2022/06/28 00:19:31;;;;;;;9.23;7.15;;;;;;;;;;5032354;28;20028;-60
2022/06/28 00:21:57;;;;;;;7.97;6.90;;;;;;;;;;5031428;28;20025;-59
2022/06/28 00:24:23;;;;;;;8.05;6.80;;;;;;;;;;5031941;28;20037;-59
2022/06/28 00:26:49;;;;;;;8.05;7.15;;;;;;;;;;5031840;28;20045;-60
2022/06/28 00:29:16;;;;;;;8.13;6.90;;;;;;;;;;5031893;28;20053;-60
2022/06/28 00:31:42;;;;;;;9.30;6.22;;;;;;;;;;5031520;28;20142;-60
2022/06/28 00:34:08;;;;;;;12.38;6.95;;;;;;;;;;5032192;28;20018;-60
2022/06/28 00:36:34;;;;;;;8.55;6.68;;;;;;;;;;5031519;28;20029;-60
2022/06/28 00:39:00;;;;;;;9.25;6.05;;;;;;;;;;5014072;28;20030;-59
2022/06/28 00:41:26;;;;;;;8.38;7.00;;;;;;;;;;5030759;28;20489;-58
2022/06/28 00:43:53;;;;;;;7.38;6.68;;;;;;;;;;5031750;28;20751;-61
2022/06/28 00:46:19;;;;;;;13.15;7.00;;;;;;;;;;5031689;28;20025;-60
2022/06/28 00:48:45;;;;;;;8.68;7.47;;;;;;;;;;5031710;28;20072;-61
2022/06/28 00:51:11;;;;;;;8.65;7.13;;;;;;;;;;5031148;28;20468;-58
2022/06/28 00:53:37;;;;;;;8.52;7.63;;;;;;;;;;5030920;28;20037;-58
2022/06/28 00:56:03;;;;;;;9.70;7.63;;;;;;;;;;5031022;28;20112;-60
2022/06/28 00:58:29;;;;;;;9.27;7.82;;;;;;;;;;5031379;28;20389;-60
2022/06/28 01:00:55;;;;;;;7.80;7.00;;;;;;;;;;5031387;28;20036;-59
2022/06/28 01:03:22;;;;;;;8.35;6.97;;;;;;;;;;5031389;28;20033;-59
2022/06/28 01:05:49;;;;;;;9.75;7.28;;;;;;;;;;5042100;28;20049;-59
2022/06/28 01:08:15;;;;;;;8.55;7.65;;;;;;;;;;5031962;28;20038;-58
2022/06/28 01:10:41;;;;;;;8.68;7.78;;;;;;;;;;5030368;28;20025;-58
2022/06/28 01:13:08;;;;;;;8.75;7.13;;;;;;;;;;5031327;28;20026;-60
2022/06/28 01:15:34;;;;;;;10.15;8.27;;;;;;;;;;5031066;28;20492;-59
2022/06/28 01:18:01;;;;;;;8.50;7.65;;;;;;;;;;5030841;28;20703;-59
2022/06/28 01:20:27;;;;;;;15.02;8.75;;;;;;;;;;5030780;28;20447;-59
2022/06/28 01:22:54;;;;;;;10.45;8.35;;;;;;;;;;5030705;28;20130;-60
2022/06/28 01:25:21;;;;;;;12.45;8.63;;;;;;;;;;5030681;28;20061;-60
2022/06/28 01:27:47;;;;;;;12.48;9.38;;;;;;;;;;5030996;28;20711;-59
2022/06/28 01:30:13;;;;;;;11.13;9.88;;;;;;;;;;5030701;28;20080;-59
2022/06/28 01:32:40;;;;;;;11.57;10.23;;;;;;;;;;5030894;28;20026;-60
2022/06/28 01:35:06;;;;;;;11.20;9.43;;;;;;;;;;5030961;28;20024;-59
2022/06/28 01:37:32;;;;;;;14.63;9.82;;;;;;;;;;5030858;28;20395;-59
2022/06/28 01:39:58;;;;;;;11.80;10.10;;;;;;;;;;5030447;28;20441;-59
2022/06/28 01:42:24;;;;;;;11.93;9.35;;;;;;;;;;5031031;28;20022;-59
2022/06/28 01:44:51;;;;;;;13.90;11.00;;;;;;;;;;5030640;28;20021;-59
2022/06/28 01:47:18;;;;;;;13.45;10.70;;;;;;;;;;5030923;28;20029;-60
2022/06/28 01:49:44;;;;;;;12.77;10.73;;;;;;;;;;5030600;28;20567;-58
2022/06/28 01:52:10;;;;;;;14.20;10.40;;;;;;;;;;5030707;28;20057;-59
2022/06/28 01:54:36;;;;;;;14.15;10.35;;;;;;;;;;5030402;28;20020;-58
2022/06/28 01:57:02;;;;;;;13.48;10.35;;;;;;;;;;5030941;28;20029;-59
2022/06/28 01:59:28;;;;;;;12.15;9.50;;;;;;;;;;5030449;28;20068;-59
2022/06/28 02:01:54;;;;;;;13.77;10.43;;;;;;;;;;5030466;28;20072;-59
2022/06/28 02:04:21;;;;;;;14.80;11.50;;;;;;;;;;5030617;28;20034;-59
2022/06/28 02:06:47;;;;;;;9.98;8.98;;;;;;;;;;5037786;28;20104;-59
2022/06/28 02:09:13;;;;;;;12.25;10.32;;;;;;;;;;5030508;28;20035;-59
2022/06/28 02:11:39;;;;;;;13.10;9.43;;;;;;;;;;5030406;28;20136;-59
2022/06/28 02:14:05;;;;;;;11.77;9.38;;;;;;;;;;5030389;28;20451;-59
2022/06/28 02:16:31;;;;;;;11.50;8.98;;;;;;;;;;5030621;28;20100;-59
2022/06/28 02:18:57;;;;;;;11.98;9.68;;;;;;;;;;5029948;28;20029;-59
2022/06/28 02:21:23;;;;;;;11.63;9.63;;;;;;;;;;5029863;28;20033;-59
2022/06/28 02:23:49;;;;;;;10.77;8.63;;;;;;;;;;5030285;28;20041;-59
2022/06/28 02:26:16;;;;;;;11.43;9.45;;;;;;;;;;5030481;28;20042;-60
2022/06/28 02:28:42;;;;;;;11.10;9.00;;;;;;;;;;5029912;28;20241;-59
2022/06/28 02:31:08;;;;;;;13.38;8.77;;;;;;;;;;5030176;28;20036;-59
2022/06/28 02:33:34;;;;;;;10.23;9.05;;;;;;;;;;5030164;28;20026;-60
2022/06/28 02:41:47;;;;;;;9.02;7.20;;;;;;;;;;4985513;28;20038;-59
2022/06/28 02:44:15;;;;;;;7.95;6.47;;;;;;;;;;5020798;28;20500;-59
2022/06/28 02:46:41;;;;;;;7.28;5.72;;;;;;;;;;5034077;28;20469;-59
2022/06/28 02:49:07;;;;;;;8.20;5.75;;;;;;;;;;5033672;28;20025;-59
2022/06/28 02:51:33;;;;;;;6.15;5.50;;;;;;;;;;5033479;28;20032;-59
2022/06/28 02:53:59;;;;;;;8.07;5.82;;;;;;;;;;5033614;28;20392;-59
2022/06/28 02:56:25;;;;;;;7.00;5.93;;;;;;;;;;5033893;28;20624;-59
2022/06/28 02:58:51;;;;;;;8.48;5.32;;;;;;;;;;5033240;28;20100;-59
2022/06/28 03:01:17;;;;;;;6.13;4.80;;;;;;;;;;5033330;28;20036;-60
2022/06/28 03:03:43;;;;;;;5.82;4.78;;;;;;;;;;5033184;28;20495;-59
2022/06/28 03:06:09;;;;;;;5.35;4.65;;;;;;;;;;5048169;28;20504;-59
2022/06/28 03:08:35;;;;;;;6.20;4.72;;;;;;;;;;5041691;28;20029;-59
2022/06/28 03:11:01;;;;;;;5.63;5.03;;;;;;;;;;5049235;28;20032;-59
2022/06/28 03:13:27;;;;;;;5.50;4.53;;;;;;;;;;5041504;28;20160;-59
2022/06/28 03:15:53;;;;;;;6.32;4.78;;;;;;;;;;5033585;28;20033;-60
2022/06/28 03:18:19;;;;;;;5.10;4.38;;;;;;;;;;5033588;28;20045;-59
2022/06/28 03:20:45;;;;;;;7.70;4.38;;;;;;;;;;5032982;28;20104;-59
2022/06/28 03:23:12;;;;;;;5.35;4.07;;;;;;;;;;5033596;28;20156;-59
2022/06/28 03:25:38;;;;;;;5.05;4.20;;;;;;;;;;5032837;28;20366;-59
2022/06/28 03:28:04;;;;;;;6.72;4.95;;;;;;;;;;5033187;28;20163;-59
2022/06/28 03:30:31;;;;;;;5.32;4.30;;;;;;;;;;5033146;28;20033;-59
2022/06/28 03:32:57;;;;;;;10.57;5.13;;;;;;;;;;5033279;28;20038;-60
2022/06/28 03:35:23;;;;;;;5.22;4.00;;;;;;;;;;5033128;28;20022;-59
2022/06/28 03:37:49;;;;;;;5.47;4.57;;;;;;;;;;5033101;28;20018;-58
2022/06/28 03:40:15;;;;;;;6.45;4.70;;;;;;;;;;5032436;28;20053;-59
2022/06/28 03:42:41;;;;;;;6.07;4.60;;;;;;;;;;5032435;28;20061;-60
2022/06/28 03:45:08;;;;;;;5.80;4.45;;;;;;;;;;5032574;28;20080;-59
2022/06/28 03:47:34;;;;;;;4.30;3.90;;;;;;;;;;5032999;28;20439;-58
2022/06/28 03:50:00;;;;;;;5.25;4.22;;;;;;;;;;5032397;28;20136;-59
2022/06/28 03:52:28;;;;;;;6.97;4.68;;;;;;;;;;5032100;28;20033;-60
2022/06/28 03:54:58;;;;;;;5.18;4.68;;;;;;;;;;5032530;28;20032;-59
2022/06/28 03:57:25;;;;;;;6.10;4.50;;;;;;;;;;5032663;28;20525;-60
2022/06/28 03:59:51;;;;;;;5.50;4.72;;;;;;;;;;5031714;28;20099;-59
2022/06/28 04:02:17;;;;;;;7.65;4.70;;;;;;;;;;5032718;28;20030;-58
2022/06/28 04:04:43;;;;;;;6.32;4.78;;;;;;;;;;5035119;28;20029;-58
2022/06/28 04:07:09;;;;;;;5.30;4.55;;;;;;;;;;5050844;28;20031;-59
2022/06/28 04:09:35;;;;;;;7.53;4.85;;;;;;;;;;5032217;28;20028;-59
2022/06/28 04:12:01;;;;;;;6.90;5.45;;;;;;;;;;5031932;28;20073;-58
2022/06/28 04:14:27;;;;;;;6.50;5.57;;;;;;;;;;5031826;28;20072;-59
2022/06/28 04:16:53;;;;;;;6.43;4.85;;;;;;;;;;5032401;28;20117;-59
2022/06/28 04:19:19;;;;;;;8.00;5.63;;;;;;;;;;5032382;28;20049;-58
2022/06/28 04:21:45;;;;;;;5.93;4.95;;;;;;;;;;5031787;28;20032;-59
2022/06/28 04:24:10;;;;;;;8.88;5.97;;;;;;;;;;5031944;28;20140;-59
2022/06/28 04:26:36;;;;;;;6.80;5.75;;;;;;;;;;5032050;28;20042;-59
2022/06/28 04:29:03;;;;;;;7.63;5.80;;;;;;;;;;5031582;28;20555;-59
2022/06/28 04:31:29;;;;;;;6.78;5.15;;;;;;;;;;5031807;28;20026;-59
2022/06/28 04:33:55;;;;;;;6.32;4.72;;;;;;;;;;5014339;28;20088;-59
2022/06/28 04:36:21;;;;;;;6.82;5.28;;;;;;;;;;5031870;28;20030;-59
2022/06/28 04:38:47;;;;;;;4.95;4.38;;;;;;;;;;5031796;28;20052;-59
2022/06/28 04:41:13;;;;;;;5.15;4.63;;;;;;;;;;5031705;28;20492;-59
2022/06/28 04:43:39;;;;;;;6.20;4.43;;;;;;;;;;5031264;28;20037;-59
2022/06/28 04:46:05;;;;;;;5.05;4.13;;;;;;;;;;5031977;28;20024;-59
2022/06/28 04:48:31;;;;;;;5.40;4.28;;;;;;;;;;5031813;28;20026;-59
2022/06/28 04:51:10;;;;;;;4.55;3.88;;;;;;;;;;5030885;28;20034;-59
2022/06/28 04:53:36;;;;;;;5.28;4.18;;;;;;;;;;5029411;28;20025;-60
2022/06/28 04:56:02;;;;;;;6.50;3.88;;;;;;;;;;5031492;28;20112;-59
2022/06/28 04:58:28;;;;;;;5.93;4.15;;;;;;;;;;5013147;28;20022;-59
2022/06/28 05:00:54;;;;;;;4.88;4.03;;;;;;;;;;5026785;28;20370;-59
2022/06/28 05:03:20;;;;;;;4.65;3.65;;;;;;;;;;5021690;28;20488;-59
2022/06/28 05:05:47;;;;;;;4.68;3.97;;;;;;;;;;5025084;28;20048;-58
2022/06/28 05:08:13;;;;;;;4.97;3.75;;;;;;;;;;5023294;28;20035;-58
2022/06/28 05:10:39;;;;;;;4.70;3.70;;;;;;;;;;5021812;28;20039;-59
2022/06/28 05:13:05;;;;;;;5.10;3.22;;;;;;;;;;5025343;28;20029;-60
2022/06/28 05:15:31;;;;;;;4.68;3.35;;;;;;;;;;5030983;28;20148;-60
2022/06/28 05:17:57;;;;;;;4.90;3.88;;;;;;;;;;5027053;28;20550;-59
2022/06/28 05:20:23;;;;;;;4.47;3.05;;;;;;;;;;5018038;28;20488;-57
2022/06/28 05:22:49;;;;;;;3.78;3.35;;;;;;;;;;5029401;28;20029;-58
2022/06/28 05:25:15;;;;;;;4.78;3.17;;;;;;;;;;5028616;28;20036;-59
2022/06/28 05:27:41;;;;;;;6.95;3.30;;;;;;;;;;5030052;28;20486;-59
2022/06/28 05:30:07;;;;;;;5.90;3.38;;;;;;;;;;5028432;28;20057;-59
2022/06/28 05:32:33;;;;;;;5.13;3.20;;;;;;;;;;5027897;28;20025;-59
2022/06/28 05:34:59;;;;;;;6.18;3.50;;;;;;;;;;5030249;28;20578;-59
2022/06/28 05:37:25;;;;;;;3.55;3.03;;;;;;;;;;5025467;28;20030;-59
2022/06/28 05:39:51;;;;;;;5.15;3.00;;;;;;;;;;5027746;28;20034;-59
2022/06/28 05:42:17;;;;;;;5.78;3.20;;;;;;;;;;5026865;28;20029;-59
2022/06/28 05:44:44;;;;;;;3.00;2.63;;;;;;;;;;5030075;28;20665;-59
2022/06/28 05:47:11;;;;;;;3.45;3.05;;;;;;;;;;5027879;28;20366;-59
2022/06/28 05:49:37;;;;;;;3.30;3.00;;;;;;;;;;5027515;28;20069;-58
2022/06/28 05:52:03;;;;;;;4.32;2.72;;;;;;;;;;5025838;28;20029;-58
2022/06/28 05:54:29;;;;;;;4.57;2.40;;;;;;;;;;5010663;28;20028;-59
2022/06/28 05:56:55;;;;;;;4.10;2.95;;;;;;;;;;5028306;28;20473;-59
2022/06/28 05:59:21;;;;;;;2.95;2.60;;;;;;;;;;5025731;28;20021;-59
2022/06/28 06:01:47;;;;;;;3.40;2.20;;;;;;;;;;5019504;28;20073;-58
2022/06/28 06:04:13;;;;;;;7.80;2.92;;;;;;;;;;5012667;28;20033;-59
2022/06/28 06:06:39;;;;;;;3.75;3.17;;;;;;;;;;5026288;28;20036;-59
2022/06/28 06:09:05;;;;;;;3.55;2.63;;;;;;;;;;5028982;28;20037;-59
2022/06/28 06:11:31;;;;;;;2.25;2.05;;;;;;;;;;5022463;28;20478;-59
2022/06/28 06:13:57;;;;;;;3.55;2.45;;;;;;;;;;5010145;28;20025;-59
2022/06/28 06:16:23;;;;;;;4.93;2.38;;;;;;;;;;5033418;28;20025;-59
2022/06/28 06:18:49;;;;;;;4.60;2.90;;;;;;;;;;5034617;28;20041;-59
2022/06/28 06:21:15;;;;;;;3.05;2.38;;;;;;;;;;5046375;28;20033;-59
2022/06/28 06:23:41;;;;;;;4.10;2.72;;;;;;;;;;5033187;28;20508;-58
2022/06/28 06:26:07;;;;;;;2.65;2.45;;;;;;;;;;5030675;28;20131;-59
2022/06/28 06:28:35;;;;;;;2.90;2.63;;;;;;;;;;5035153;28;20033;-59
2022/06/28 06:31:01;;;;;;;5.82;2.50;;;;;;;;;;5037607;28;20109;-60
2022/06/28 06:33:27;;;;;;;2.97;2.67;;;;;;;;;;5032538;28;20808;-59
2022/06/28 06:35:53;;;;;;;3.05;2.42;;;;;;;;;;5033907;28;20084;-60
2022/06/28 06:38:19;;;;;;;3.95;2.53;;;;;;;;;;5029552;28;20041;-59
2022/06/28 06:40:45;;;;;;;4.35;2.95;;;;;;;;;;5022743;28;20473;-59
2022/06/28 06:43:11;;;;;;;3.22;2.90;;;;;;;;;;5015610;28;20033;-60
2022/06/28 06:45:36;;;;;;;3.25;2.90;;;;;;;;;;5032822;28;20045;-59
2022/06/28 06:48:02;;;;;;;4.78;2.70;;;;;;;;;;5031846;28;20036;-59
2022/06/28 06:50:28;;;;;;;4.38;2.55;;;;;;;;;;5033329;28;20537;-59
2022/06/28 06:52:55;;;;;;;7.63;2.90;;;;;;;;;;5032863;28;20041;-59
2022/06/28 06:55:21;;;;;;;2.65;2.42;;;;;;;;;;5033101;28;20029;-59
2022/06/28 06:57:47;;;;;;;3.88;3.20;;;;;;;;;;5032170;28;20030;-58
2022/06/28 07:00:13;;;;;;;3.65;2.45;;;;;;;;;;5032626;28;20033;-59
2022/06/28 07:02:40;;;;;;;3.88;2.83;;;;;;;;;;5032125;28;20124;-59
2022/06/28 07:05:06;;;;;;;6.05;3.00;;;;;;;;;;5030261;28;20037;-59
2022/06/28 07:07:32;;;;;;;3.50;3.13;;;;;;;;;;5032998;28;20261;-60
2022/06/28 07:09:58;;;;;;;5.10;2.65;;;;;;;;;;5031416;28;20037;-60
2022/06/28 07:12:24;;;;;;;2.67;2.47;;;;;;;;;;5033087;28;20021;-59
2022/06/28 07:14:50;;;;;;;3.60;2.78;;;;;;;;;;5030833;28;20104;-59
2022/06/28 07:17:16;;;;;;;2.70;2.50;;;;;;;;;;5031316;28;20034;-60
2022/06/28 07:19:42;;;;;;;3.00;2.55;;;;;;;;;;5032673;28;20029;-59
2022/06/28 07:22:08;;;;;;;3.25;2.95;;;;;;;;;;5037640;28;20034;-59
2022/06/28 07:24:34;;;;;;;3.17;2.67;;;;;;;;;;5022719;28;20096;-59
2022/06/28 07:27:00;;;;;;;4.20;2.60;;;;;;;;;;5032039;28;21478;-59
2022/06/28 07:29:26;;;;;;;2.25;2.05;;;;;;;;;;5030368;28;20061;-57
2022/06/28 07:31:52;;;;;;;3.50;2.42;;;;;;;;;;5030643;28;20033;-60
2022/06/28 07:34:18;;;;;;;5.03;2.40;;;;;;;;;;5031875;28;20026;-59
2022/06/28 07:36:45;;;;;;;2.30;2.10;;;;;;;;;;5032477;28;20053;-59
2022/06/28 07:39:11;;;;;;;3.25;2.53;;;;;;;;;;5021760;28;20017;-59
2022/06/28 07:41:37;;;;;;;3.13;2.30;;;;;;;;;;5031030;28;20548;-56
2022/06/28 07:44:03;;;;;;;2.75;2.20;;;;;;;;;;5031565;28;20029;-59
2022/06/28 07:46:29;;;;;;;3.78;2.00;;;;;;;;;;5032749;28;20037;-59
2022/06/28 07:48:55;;;;;;;3.63;2.05;;;;;;;;;;5032117;28;20080;-59
2022/06/28 07:54:06;;;;;;;3.47;1.95;;;;;;;;;;5026266;28;20157;-59
2022/06/28 07:56:32;;;;;;;1.40;1.30;;;;;;;;;;5030987;28;20728;-59
2022/06/28 07:58:58;;;;;;;2.63;1.60;;;;;;;;;;5031724;28;20029;-59
2022/06/28 08:01:24;;;;;;;6.45;1.60;;;;;;;;;;5029747;28;20115;-60
2022/06/28 08:03:50;;;;;;;1.92;1.67;;;;;;;;;;5027533;28;20044;-59
2022/06/28 08:06:16;;;;;;;2.30;1.60;;;;;;;;;;5030928;28;20208;-59
2022/06/28 08:08:42;;;;;;;2.03;1.50;;;;;;;;;;5032167;28;20034;-59
2022/06/28 08:11:09;;;;;;;1.75;1.50;;;;;;;;;;5031382;28;20133;-59
2022/06/28 08:13:37;;;;;;;3.40;1.80;;;;;;;;;;5030682;28;20033;-59
2022/06/28 08:16:03;;;;;;;1.80;1.30;;;;;;;;;;5029911;28;20056;-59
2022/06/28 08:18:29;;;;;;;3.80;1.60;;;;;;;;;;5024455;28;20100;-59
2022/06/28 08:20:54;;;;;;;1.58;1.40;;;;;;;;;;5027950;28;20057;-59
2022/06/28 08:23:20;;;;;;;1.98;1.52;;;;;;;;;;5031363;28;20048;-59
2022/06/28 08:25:47;;;;;;;2.53;1.40;;;;;;;;;;5028572;28;20057;-59
2022/06/28 08:28:13;;;;;;;2.25;1.42;;;;;;;;;;5031946;28;20028;-59
2022/06/28 08:30:39;;;;;;;2.72;1.60;;;;;;;;;;5031876;28;20500;-57
2022/06/28 08:33:05;;;;;;;2.10;1.48;;;;;;;;;;5032220;28;20508;-57
2022/06/28 08:35:31;;;;;;;2.05;1.60;;;;;;;;;;5031654;28;20109;-56
2022/06/28 08:37:57;;;;;;;2.00;1.50;;;;;;;;;;5043070;28;20392;-57
2022/06/28 08:40:25;;;;;;;2.85;1.50;;;;;;;;;;5031701;28;20028;-59
2022/06/28 08:42:55;;;;;;;2.22;1.80;;;;;;;;;;5031719;28;20362;-57
2022/06/28 08:45:22;;;;;;;1.27;1.10;;;;;;;;;;5032094;28;20453;-58
2022/06/28 08:47:51;;;;;;;1.70;1.15;;;;;;;;;;5031797;28;20083;-57
2022/06/28 08:50:23;;;;;;;4.28;1.25;;;;;;;;;;5031098;28;20121;-57
2022/06/28 08:52:49;;;;;;;0.98;0.88;;;;;;;;;;5028019;28;20034;-57
2022/06/28 08:55:15;;;;;;;0.95;0.75;;;;;;;;;;5022888;28;20033;-57
2022/06/28 08:57:41;;;;;;;1.27;0.88;;;;;;;;;;5031641;28;20021;-58
2022/06/28 09:00:08;;;;;;;1.13;0.85;;;;;;;;;;5031182;28;20168;-57
2022/06/28 09:02:34;;;;;;;1.17;0.80;;;;;;;;;;5030254;28;20104;-57
2022/06/28 09:05:01;;;;;;;1.17;0.77;;;;;;;;;;5030891;28;20032;-57
2022/06/28 09:07:28;;;;;;;1.10;0.88;;;;;;;;;;5044176;28;20108;-57
2022/06/28 09:09:54;;;;;;;1.05;0.70;;;;;;;;;;5030463;28;20025;-57
2022/06/28 09:12:20;;;;;;;1.55;0.98;;;;;;;;;;5030983;28;20112;-57
2022/06/28 09:14:46;;;;;;;2.17;0.73;;;;;;;;;;5029752;28;20029;-58
2022/06/28 09:17:26;;;;;;;2.30;1.00;;;;;;;;;;5031248;28;20508;-57
2022/06/28 09:19:57;;;;;;;1.30;0.95;;;;;;;;;;5030887;28;20124;-57
2022/06/28 09:22:32;;;;;;;1.45;1.02;;;;;;;;;;5031136;28;20018;-56
2022/06/28 09:24:58;;;;;;;2.85;0.93;;;;;;;;;;5028585;28;20037;-58
2022/06/28 09:27:28;;;;;;;1.77;0.98;;;;;;;;;;5029254;28;20400;-57
2022/06/28 09:29:54;;;;;;;0.70;0.50;;;;;;;;;;5030047;28;20025;-57
2022/06/28 09:32:27;;;;;;;2.40;1.10;;;;;;;;;;5030628;28;20036;-55
2022/06/28 09:34:58;;;;;;;3.30;0.95;;;;;;;;;;5013153;28;20021;-57
2022/06/28 09:37:35;;;;;;;1.33;1.02;;;;;;;;;;5030930;28;20029;-57
2022/06/28 09:40:12;;;;;;;1.40;0.80;;;;;;;;;;5030030;28;20061;-58
2022/06/28 09:42:38;;;;;;;2.17;0.80;;;;;;;;;;5029978;28;20488;-58
2022/06/28 09:45:05;;;;;;;0.80;0.70;;;;;;;;;;5029671;28;20124;-56
2022/06/28 09:47:31;;;;;;;0.80;0.70;;;;;;;;;;5030538;28;20051;-58
2022/06/28 09:49:57;;;;;;;1.67;0.80;;;;;;;;;;5028218;28;20677;-58
2022/06/28 09:52:27;;;;;;;3.70;0.98;;;;;;;;;;5030900;28;20068;-58
2022/06/28 09:54:56;;;;;;;1.00;0.90;;;;;;;;;;5021408;28;20052;-58
2022/06/28 09:57:22;;;;;;;3.22;1.00;;;;;;;;;;5030674;28;20025;-59
2022/06/28 09:59:49;;;;;;;1.90;1.00;;;;;;;;;;5028994;28;20026;-58
2022/06/28 10:02:17;;;;;;;1.15;0.80;;;;;;;;;;5035903;28;20099;-58
2022/06/28 10:04:44;;;;;;;0.85;0.63;;;;;;;;;;5032930;28;20037;-58
2022/06/28 10:07:10;;;;;;;0.70;0.70;;;;;;;;;;5040721;28;20052;-58
2022/06/28 10:09:37;;;;;;;1.45;0.70;;;;;;;;;;5029877;28;20108;-57
2022/06/28 10:15:01;;;;;;;1.50;0.80;;;;;;;;;;5030824;28;20088;-59
2022/06/28 10:17:33;;;;;;;1.00;0.60;;;;;;;;;;5029872;28;20049;-58
2022/06/28 10:20:00;;;;;;;1.60;0.63;;;;;;;;;;5023251;28;20188;-59
2022/06/28 10:22:26;;;;;;;3.63;0.80;;;;;;;;;;5030238;28;20555;-59
2022/06/28 10:24:53;;;;;;;0.60;0.55;;;;;;;;;;5030397;28;20141;-58
2022/06/28 10:27:20;;;;;;;0.90;0.50;;;;;;;;;;5029306;28;20100;-58
2022/06/28 10:30:15;;;;;;;2.67;0.52;;;;;;;;;;5029498;28;20022;-58
2022/06/28 10:32:45;;;;;;;1.00;0.80;;;;;;;;;;5030038;28;20028;-57
2022/06/28 10:35:31;;;;;;;0.90;0.60;;;;;;;;;;5029983;28;20639;-59
2022/06/28 10:38:09;;;;;;;1.58;0.70;;;;;;;;;;5012836;28;20036;-58
2022/06/28 10:40:41;;;;;;;1.77;0.60;;;;;;;;;;5028690;28;20484;-59
2022/06/28 10:43:08;;;;;;;3.75;0.77;;;;;;;;;;5030283;28;20029;-59
2022/06/28 10:45:52;;;;;;;0.47;0.40;;;;;;;;;;5030387;28;20032;-59
2022/06/28 10:48:18;;;;;;;1.25;0.85;;;;;;;;;;5029854;28;20117;-59
2022/06/28 10:50:57;;;;;;;1.98;0.90;;;;;;;;;;5028939;28;20026;-57
2022/06/28 10:53:23;;;;;;;0.85;0.50;;;;;;;;;;5028164;28;20532;-59
2022/06/28 10:56:07;;;;;;;1.73;0.60;;;;;;;;;;5029299;28;20451;-59
2022/06/28 10:58:33;;;;;;;0.95;0.50;;;;;;;;;;5029174;28;20029;-57
2022/06/28 11:01:00;;;;;;;1.65;0.60;;;;;;;;;;5032412;28;20017;-58
2022/06/28 11:03:26;;;;;;;0.63;0.47;;;;;;;;;;5017639;28;20087;-56
2022/06/28 11:05:53;;;;;;;0.60;0.40;;;;;;;;;;5045454;28;20036;-58
2022/06/28 11:08:34;;;;;;;1.55;0.70;;;;;;;;;;5035910;28;20040;-58
2022/06/28 11:11:01;;;;;;;1.15;0.40;;;;;;;;;;5032652;28;20034;-58
2022/06/28 11:13:27;;;;;;;1.25;0.55;;;;;;;;;;5032361;28;20481;-58
2022/06/28 11:15:53;;;;;;;1.40;0.50;;;;;;;;;;5033360;28;20113;-58
2022/06/28 11:18:20;;;;;;;0.63;0.50;;;;;;;;;;5032623;28;20025;-59
2022/06/28 11:20:46;;;;;;;1.10;0.50;;;;;;;;;;5032958;28;20025;-59
2022/06/28 11:23:25;;;;;;;1.20;0.60;;;;;;;;;;5033042;28;22241;-58
2022/06/28 11:28:54;;;;;;;2.55;0.70;;;;;;;;;;5029321;28;20164;-59
2022/06/28 11:31:21;;;;;;;1.00;0.60;;;;;;;;;;5032975;28;20029;-58
2022/06/28 11:33:47;;;;;;;0.80;0.50;;;;;;;;;;5032920;28;20517;-58
2022/06/28 11:36:29;;;;;;;0.60;0.50;;;;;;;;;;5031720;28;20642;-59
2022/06/28 11:38:55;;;;;;;1.05;0.50;;;;;;;;;;5032535;28;20026;-58
2022/06/28 11:41:28;;;;;;;0.90;0.65;;;;;;;;;;5032378;28;20535;-58
2022/06/28 11:43:59;;;;;;;1.85;0.50;;;;;;;;;;5032745;28;20615;-58
2022/06/28 11:46:26;;;;;;;3.22;0.70;;;;;;;;;;5033024;28;20030;-59
2022/06/28 11:48:52;;;;;;;1.10;0.50;;;;;;;;;;5032093;28;20030;-59
2022/06/28 11:51:25;;;;;;;2.53;0.60;;;;;;;;;;5018812;28;20049;-58
2022/06/28 11:53:51;;;;;;;1.85;0.63;;;;;;;;;;5030550;28;20044;-57
2022/06/28 11:56:17;;;;;;;1.00;0.80;;;;;;;;;;5032470;28;20473;-58
2022/06/28 11:58:43;;;;;;;1.52;0.40;;;;;;;;;;5024615;28;20025;-59
2022/06/28 12:01:11;;;;;;;0.57;0.40;;;;;;;;;;5030044;28;20025;-58
2022/06/28 12:03:43;;;;;;;1.17;0.50;;;;;;;;;;5036644;28;20670;-58
2022/06/28 12:06:22;;;;;;;0.95;0.60;;;;;;;;;;5031537;28;20033;-58
2022/06/28 12:08:52;;;;;;;5.50;0.50;;;;;;;;;;5026915;28;20041;-58
2022/06/28 12:11:31;;;;;;;1.05;0.50;;;;;;;;;;5029788;28;20111;-59
2022/06/28 12:13:58;;;;;;;0.38;0.30;;;;;;;;;;5027976;28;20026;-58
2022/06/28 12:16:24;;;;;;;2.22;0.60;;;;;;;;;;5031249;28;20021;-58
2022/06/28 12:18:54;;;;;;;8.20;1.08;;;;;;;;;;5029649;28;20100;-58
2022/06/28 12:21:20;;;;;;;1.42;0.60;;;;;;;;;;5030094;28;20021;-58
2022/06/28 12:23:56;;;;;;;0.98;0.38;;;;;;;;;;5031049;28;20479;-58
2022/06/28 12:26:36;;;;;;;20.00;2.85;;;;;;;;;;5024019;28;20041;-58
2022/06/28 12:29:02;;;;;;;26.13;5.43;;;;;;;;;;5038769;28;20051;-58
2022/06/28 12:31:28;;;;;;;8.35;1.70;;;;;;;;;;5031941;28;20758;-58
2022/06/28 12:33:54;;;;;;;1.10;0.40;;;;;;;;;;5020189;28;20025;-58
2022/06/28 12:36:20;;;;;;;6.85;1.45;;;;;;;;;;5030717;28;20025;-59
2022/06/28 12:38:46;;;;;;;6.57;1.40;;;;;;;;;;5022936;28;20056;-59
2022/06/28 12:41:12;;;;;;;1.33;0.45;;;;;;;;;;5028888;28;20032;-58
2022/06/28 12:43:38;;;;;;;1.42;0.40;;;;;;;;;;5020279;28;20477;-58
2022/06/28 12:46:04;;;;;;;0.98;0.50;;;;;;;;;;5027879;28;20061;-58
2022/06/28 12:48:32;;;;;;;1.20;0.68;;;;;;;;;;5019530;28;20117;-58
2022/06/28 12:50:58;;;;;;;1.17;0.40;;;;;;;;;;5024428;28;20535;-58
2022/06/28 12:53:24;;;;;;;40.38;7.53;;;;;;;;;;5028800;28;20034;-58
2022/06/28 12:55:50;;;;;;;6.22;1.48;;;;;;;;;;5025448;28;20033;-58
2022/06/28 12:58:16;;;;;;;3.15;1.00;;;;;;;;;;5030717;28;20018;-58
2022/06/28 13:00:42;;;;;;;1.30;0.47;;;;;;;;;;5029627;28;20029;-58
2022/06/28 13:03:08;;;;;;;1.00;0.80;;;;;;;;;;5030243;28;20474;-58
2022/06/28 13:05:34;;;;;;;1.25;0.55;;;;;;;;;;5037348;28;20037;-59
2022/06/28 13:08:02;;;;;;;1.05;0.60;;;;;;;;;;5030459;28;20420;-58
2022/06/28 13:10:28;;;;;;;0.80;0.50;;;;;;;;;;5030021;28;20033;-58
2022/06/28 13:12:54;;;;;;;0.65;0.43;;;;;;;;;;5030794;28;20381;-59
2022/06/28 13:15:20;;;;;;;1.35;0.43;;;;;;;;;;5029950;28;20029;-59
2022/06/28 13:17:46;;;;;;;0.70;0.38;;;;;;;;;;5030048;28;20056;-59
2022/06/28 13:20:13;;;;;;;2.42;0.68;;;;;;;;;;5020602;28;20029;-58
2022/06/28 13:22:40;;;;;;;0.50;0.40;;;;;;;;;;5025323;28;20040;-59
2022/06/28 13:25:06;;;;;;;1.55;0.35;;;;;;;;;;5003470;28;20083;-59
2022/06/28 13:27:32;;;;;;;0.80;0.30;;;;;;;;;;5026742;28;20091;-58
2022/06/28 13:29:58;;;;;;;1.25;0.32;;;;;;;;;;5018491;28;20042;-58
2022/06/28 13:32:25;;;;;;;1.60;0.25;;;;;;;;;;5024916;28;20060;-58
2022/06/28 13:34:51;;;;;;;1.58;0.30;;;;;;;;;;5029932;28;20022;-59
2022/06/28 13:37:17;;;;;;;1.45;0.52;;;;;;;;;;5019305;28;20022;-59
2022/06/28 13:39:43;;;;;;;1.60;0.40;;;;;;;;;;5029088;28;20111;-58
2022/06/28 13:42:09;;;;;;;0.30;0.13;;;;;;;;;;5028000;28;20067;-57
2022/06/28 13:44:35;;;;;;;0.65;0.30;;;;;;;;;;5029075;28;20036;-58
2022/06/28 13:47:01;;;;;;;0.60;0.43;;;;;;;;;;5030151;28;20034;-59
2022/06/28 13:49:27;;;;;;;0.30;0.20;;;;;;;;;;5030115;28;20512;-59
2022/06/28 13:51:53;;;;;;;0.40;0.20;;;;;;;;;;5025391;28;20046;-58
2022/06/28 13:54:19;;;;;;;1.42;0.28;;;;;;;;;;5025853;28;20044;-58
2022/06/28 13:56:45;;;;;;;0.25;0.22;;;;;;;;;;5026343;28;20018;-59
2022/06/28 13:59:11;;;;;;;1.02;0.20;;;;;;;;;;5027604;28;20366;-56
2022/06/28 14:01:37;;;;;;;1.40;0.30;;;;;;;;;;5025142;28;20072;-59
2022/06/28 14:04:03;;;;;;;0.70;0.40;;;;;;;;;;5020397;28;20045;-58
2022/06/28 14:06:29;;;;;;;0.35;0.25;;;;;;;;;;5023291;28;20505;-59
2022/06/28 14:08:55;;;;;;;1.02;0.28;;;;;;;;;;5026239;28;20045;-57
2022/06/28 14:11:21;;;;;;;0.80;0.25;;;;;;;;;;5019052;28;20489;-57
2022/06/28 14:13:47;;;;;;;2.58;0.30;;;;;;;;;;5029229;28;20065;-59
2022/06/28 14:16:13;;;;;;;1.20;0.50;;;;;;;;;;5023608;28;20026;-58
2022/06/28 14:18:39;;;;;;;0.82;0.30;;;;;;;;;;5028036;28;20033;-57
2022/06/28 14:21:05;;;;;;;0.45;0.28;;;;;;;;;;5028313;28;20025;-56
2022/06/28 14:23:31;;;;;;;1.55;0.52;;;;;;;;;;5021708;28;20025;-57
2022/06/28 14:25:57;;;;;;;1.42;0.30;;;;;;;;;;5028739;28;20057;-57
2022/06/28 14:28:23;;;;;;;2.50;0.38;;;;;;;;;;5030669;28;20095;-57
2022/06/28 14:30:49;;;;;;;2.28;0.28;;;;;;;;;;5028792;28;20441;-58
2022/06/28 14:33:15;;;;;;;0.68;0.28;;;;;;;;;;5029565;28;20033;-59
2022/06/28 14:35:41;;;;;;;0.40;0.20;;;;;;;;;;5032250;28;20033;-59
2022/06/28 14:38:08;;;;;;;1.38;0.20;;;;;;;;;;5033220;28;20496;-58
2022/06/28 14:40:34;;;;;;;0.80;0.30;;;;;;;;;;5033438;28;20530;-56
2022/06/28 14:43:00;;;;;;;0.30;0.10;;;;;;;;;;5033148;28;20473;-59
2022/06/28 14:45:27;;;;;;;1.52;0.32;;;;;;;;;;5033093;28;20178;-56
2022/06/28 14:47:54;;;;;;;0.45;0.10;;;;;;;;;;5034092;28;20026;-56
2022/06/28 14:50:20;;;;;;;0.35;0.17;;;;;;;;;;5032971;28;20025;-58
2022/06/28 14:52:46;;;;;;;0.93;0.30;;;;;;;;;;5034003;28;20026;-59
2022/06/28 14:55:12;;;;;;;0.40;0.20;;;;;;;;;;5031762;28;20022;-58
2022/06/28 14:57:38;;;;;;;3.83;0.30;;;;;;;;;;5033570;28;20395;-59